BCS2KK EDDP-LKTB
Flight info
| Callsign | BCS2KK |
|---|---|
| Flight time | 0h 42m |
| Altitude | 27000 |
| Route | DRN2S DRN Z21 OMELO DCT VLM DCT TUMKA |
| Aircraft | A306/H-SDE3FGHIRWY/LB1 |
Departure
| Time | 2026-04-26 20:50 |
|---|---|
| Airport | Leipzig/Halle Airport (EDDP) |
Arrival
| Time | 2026-04-26 21:33 |
|---|---|
| Airport | Brno-Tuřany Airport (LKTB) |
| Time | Latitude | Longitude | Altitude | Speed | Heading |
|---|---|---|---|---|---|
| 2026-04-26 20:21 | 51.40936 | 12.24339 | 473 ft | 0 kts | 85° |
| 2026-04-26 20:41 | 51.40933 | 12.24304 | 473 ft | 4 kts | 77° |
| 2026-04-26 20:41 | 51.40925 | 12.24265 | 473 ft | 4 kts | 58° |
| 2026-04-26 20:41 | 51.40908 | 12.24236 | 472 ft | 4 kts | 17° |
| 2026-04-26 20:41 | 51.40894 | 12.24232 | 472 ft | 1 kts | 356° |
| 2026-04-26 20:42 | 51.40892 | 12.24233 | 472 ft | 0 kts | 356° |
| 2026-04-26 20:47 | 51.40938 | 12.24228 | 469 ft | 8 kts | 356° |
| 2026-04-26 20:47 | 51.40957 | 12.24226 | 474 ft | 7 kts | 356° |
| 2026-04-26 20:47 | 51.41044 | 12.24222 | 471 ft | 12 kts | 12° |
| 2026-04-26 20:47 | 51.41084 | 12.24344 | 469 ft | 17 kts | 85° |
| 2026-04-26 20:48 | 51.41097 | 12.24570 | 471 ft | 22 kts | 84° |
| 2026-04-26 20:48 | 51.41107 | 12.24820 | 478 ft | 22 kts | 85° |
| 2026-04-26 20:48 | 51.41117 | 12.25051 | 471 ft | 20 kts | 86° |
| 2026-04-26 20:48 | 51.41126 | 12.25248 | 474 ft | 16 kts | 85° |
| 2026-04-26 20:49 | 51.41139 | 12.25404 | 475 ft | 12 kts | 68° |
| 2026-04-26 20:49 | 51.41192 | 12.25453 | 473 ft | 7 kts | 355° |
| 2026-04-26 20:49 | 51.41235 | 12.25440 | 475 ft | 14 kts | 345° |
| 2026-04-26 20:49 | 51.41348 | 12.25319 | 474 ft | 25 kts | 303° |
| 2026-04-26 20:50 | 51.41354 | 12.24633 | 479 ft | 89 kts | 265° |
| 2026-04-26 20:50 | 51.41292 | 12.23278 | 473 ft | 154 kts | 265° |
| 2026-04-26 20:50 | 51.41194 | 12.21308 | 872 ft | 190 kts | 266° |
| 2026-04-26 20:50 | 51.41128 | 12.19842 | 1530 ft | 199 kts | 266° |
| 2026-04-26 20:51 | 51.41033 | 12.17574 | 2573 ft | 210 kts | 267° |
| 2026-04-26 20:51 | 51.40935 | 12.15228 | 3294 ft | 218 kts | 268° |
| 2026-04-26 20:51 | 51.40844 | 12.12689 | 3736 ft | 238 kts | 268° |
| 2026-04-26 20:51 | 51.40681 | 12.09961 | 4378 ft | 250 kts | 257° |
| 2026-04-26 20:52 | 51.39932 | 12.07472 | 5335 ft | 251 kts | 228° |
| 2026-04-26 20:52 | 51.38436 | 12.06067 | 6190 ft | 259 kts | 193° |
| 2026-04-26 20:52 | 51.36607 | 12.06157 | 6846 ft | 270 kts | 166° |
| 2026-04-26 20:52 | 51.34813 | 12.07121 | 7663 ft | 275 kts | 160° |
| 2026-04-26 20:53 | 51.33002 | 12.08214 | 8452 ft | 281 kts | 160° |
| 2026-04-26 20:53 | 51.31155 | 12.09314 | 9236 ft | 286 kts | 160° |
| 2026-04-26 20:53 | 51.29268 | 12.10417 | 9989 ft | 292 kts | 161° |
| 2026-04-26 20:53 | 51.27331 | 12.11533 | 10608 ft | 302 kts | 161° |
| 2026-04-26 20:54 | 51.25287 | 12.12700 | 10911 ft | 322 kts | 162° |
| 2026-04-26 20:54 | 51.23113 | 12.13935 | 11192 ft | 340 kts | 162° |
| 2026-04-26 20:54 | 51.20826 | 12.15237 | 11477 ft | 357 kts | 162° |
| 2026-04-26 20:54 | 51.18429 | 12.16596 | 11718 ft | 373 kts | 162° |
| 2026-04-26 20:55 | 51.15937 | 12.18007 | 12027 ft | 386 kts | 162° |
| 2026-04-26 20:55 | 51.13374 | 12.19453 | 12496 ft | 394 kts | 162° |
| 2026-04-26 20:55 | 51.10779 | 12.20919 | 13052 ft | 398 kts | 162° |
| 2026-04-26 20:55 | 51.08210 | 12.22464 | 13608 ft | 402 kts | 158° |
| 2026-04-26 20:56 | 51.05781 | 12.24715 | 14157 ft | 408 kts | 144° |
| 2026-04-26 20:56 | 51.03753 | 12.27890 | 14695 ft | 413 kts | 128° |
| 2026-04-26 20:56 | 51.02294 | 12.31828 | 15249 ft | 416 kts | 112° |
| 2026-04-26 20:56 | 51.01516 | 12.36252 | 15760 ft | 418 kts | 97° |
| 2026-04-26 20:57 | 51.01371 | 12.40868 | 16281 ft | 420 kts | 88° |
| 2026-04-26 20:57 | 51.01409 | 12.45528 | 16770 ft | 423 kts | 87° |
| 2026-04-26 20:57 | 51.01460 | 12.50213 | 17267 ft | 427 kts | 87° |
| 2026-04-26 20:57 | 51.01501 | 12.54951 | 17747 ft | 430 kts | 87° |
| 2026-04-26 20:58 | 51.01532 | 12.59665 | 18207 ft | 434 kts | 88° |
| 2026-04-26 20:58 | 51.01555 | 12.64477 | 18654 ft | 438 kts | 88° |
| 2026-04-26 20:58 | 51.01577 | 12.69331 | 19130 ft | 441 kts | 88° |
| 2026-04-26 20:58 | 51.01595 | 12.74217 | 19581 ft | 443 kts | 88° |
| 2026-04-26 20:59 | 51.01611 | 12.79126 | 20001 ft | 446 kts | 88° |
| 2026-04-26 20:59 | 51.01626 | 12.84068 | 20422 ft | 449 kts | 88° |
| 2026-04-26 20:59 | 51.01637 | 12.89047 | 20840 ft | 451 kts | 88° |
| 2026-04-26 20:59 | 51.01646 | 12.94047 | 21234 ft | 454 kts | 88° |
| 2026-04-26 21:00 | 51.01652 | 12.99069 | 21628 ft | 457 kts | 88° |
| 2026-04-26 21:00 | 51.01655 | 13.04135 | 21964 ft | 460 kts | 88° |
| 2026-04-26 21:00 | 51.01657 | 13.09235 | 22344 ft | 462 kts | 88° |
| 2026-04-26 21:00 | 51.01656 | 13.14350 | 22700 ft | 465 kts | 88° |
| 2026-04-26 21:01 | 51.01655 | 13.19498 | 23016 ft | 468 kts | 89° |
| 2026-04-26 21:01 | 51.01650 | 13.24681 | 23351 ft | 470 kts | 89° |
| 2026-04-26 21:01 | 51.01645 | 13.29877 | 23678 ft | 472 kts | 89° |
| 2026-04-26 21:01 | 51.01636 | 13.35034 | 23993 ft | 474 kts | 89° |
| 2026-04-26 21:02 | 51.01622 | 13.40365 | 24276 ft | 478 kts | 89° |
| 2026-04-26 21:02 | 51.01607 | 13.45577 | 24582 ft | 480 kts | 89° |
| 2026-04-26 21:02 | 51.01589 | 13.50888 | 24867 ft | 482 kts | 89° |
| 2026-04-26 21:02 | 51.01418 | 13.56216 | 25151 ft | 485 kts | 96° |
| 2026-04-26 21:03 | 51.00607 | 13.61428 | 25359 ft | 490 kts | 111° |
| 2026-04-26 21:03 | 50.99106 | 13.66287 | 25648 ft | 491 kts | 120° |
| 2026-04-26 21:03 | 50.97375 | 13.70962 | 25920 ft | 492 kts | 122° |
| 2026-04-26 21:03 | 50.95530 | 13.75573 | 26152 ft | 494 kts | 124° |
| 2026-04-26 21:04 | 50.93626 | 13.80118 | 26402 ft | 496 kts | 127° |
| 2026-04-26 21:04 | 50.91530 | 13.84463 | 26665 ft | 496 kts | 129° |
| 2026-04-26 21:04 | 50.89421 | 13.88774 | 27008 ft | 495 kts | 129° |
| 2026-04-26 21:04 | 50.87290 | 13.93074 | 27255 ft | 496 kts | 129° |
| 2026-04-26 21:05 | 50.85170 | 13.97309 | 27279 ft | 481 kts | 131° |
| 2026-04-26 21:05 | 50.82799 | 14.00743 | 27292 ft | 458 kts | 147° |
| 2026-04-26 21:05 | 50.80228 | 14.03557 | 27288 ft | 444 kts | 149° |
| 2026-04-26 21:05 | 50.77635 | 14.06194 | 27296 ft | 444 kts | 151° |
| 2026-04-26 21:06 | 50.75003 | 14.08738 | 27295 ft | 444 kts | 152° |
| 2026-04-26 21:06 | 50.72349 | 14.11242 | 27294 ft | 444 kts | 152° |
| 2026-04-26 21:06 | 50.69699 | 14.13733 | 27293 ft | 444 kts | 152° |
| 2026-04-26 21:06 | 50.67054 | 14.16227 | 27293 ft | 443 kts | 152° |
| 2026-04-26 21:07 | 50.64411 | 14.18731 | 27294 ft | 443 kts | 152° |
| 2026-04-26 21:07 | 50.61770 | 14.21243 | 27294 ft | 443 kts | 152° |
| 2026-04-26 21:07 | 50.59132 | 14.23758 | 27293 ft | 443 kts | 152° |
| 2026-04-26 21:07 | 50.56497 | 14.26274 | 27292 ft | 442 kts | 151° |
| 2026-04-26 21:08 | 50.53871 | 14.28781 | 27293 ft | 442 kts | 152° |
| 2026-04-26 21:08 | 50.51246 | 14.31286 | 27292 ft | 442 kts | 152° |
| 2026-04-26 21:08 | 50.48611 | 14.33794 | 27293 ft | 442 kts | 152° |
| 2026-04-26 21:08 | 50.45984 | 14.36292 | 27293 ft | 442 kts | 152° |
| 2026-04-26 21:09 | 50.43349 | 14.38790 | 27294 ft | 442 kts | 152° |
| 2026-04-26 21:09 | 50.40721 | 14.41279 | 27293 ft | 441 kts | 152° |
| 2026-04-26 21:09 | 50.38090 | 14.43765 | 27293 ft | 441 kts | 152° |
| 2026-04-26 21:09 | 50.35459 | 14.46248 | 27293 ft | 441 kts | 152° |
| 2026-04-26 21:10 | 50.32828 | 14.48728 | 27294 ft | 442 kts | 152° |
| 2026-04-26 21:10 | 50.30206 | 14.51197 | 27288 ft | 436 kts | 152° |
| 2026-04-26 21:10 | 50.27638 | 14.53618 | 27289 ft | 428 kts | 152° |
| 2026-04-26 21:10 | 50.25135 | 14.55974 | 27292 ft | 426 kts | 152° |
| 2026-04-26 21:11 | 50.22594 | 14.58361 | 27293 ft | 425 kts | 152° |
| 2026-04-26 21:11 | 50.20057 | 14.60738 | 27294 ft | 425 kts | 152° |
| 2026-04-26 21:11 | 50.17518 | 14.63115 | 27294 ft | 425 kts | 152° |
| 2026-04-26 21:11 | 50.14988 | 14.65476 | 27294 ft | 425 kts | 152° |
| 2026-04-26 21:12 | 50.12437 | 14.67857 | 27293 ft | 426 kts | 152° |
| 2026-04-26 21:12 | 50.09884 | 14.70237 | 27298 ft | 430 kts | 152° |
| 2026-04-26 21:12 | 50.07293 | 14.72648 | 27223 ft | 435 kts | 152° |
| 2026-04-26 21:12 | 50.04716 | 14.75044 | 26501 ft | 430 kts | 152° |
| 2026-04-26 21:13 | 50.02158 | 14.77424 | 25714 ft | 425 kts | 152° |
| 2026-04-26 21:13 | 49.99633 | 14.79772 | 24927 ft | 421 kts | 152° |
| 2026-04-26 21:13 | 49.97137 | 14.82090 | 24193 ft | 415 kts | 152° |
| 2026-04-26 21:13 | 49.94713 | 14.84338 | 23512 ft | 408 kts | 152° |
| 2026-04-26 21:14 | 49.92287 | 14.86583 | 22801 ft | 406 kts | 152° |
| 2026-04-26 21:14 | 49.89860 | 14.88823 | 22325 ft | 404 kts | 152° |
| 2026-04-26 21:14 | 49.87447 | 14.91044 | 21852 ft | 402 kts | 152° |
| 2026-04-26 21:14 | 49.85050 | 14.93251 | 21382 ft | 400 kts | 152° |
| 2026-04-26 21:15 | 49.82663 | 14.95449 | 20940 ft | 397 kts | 152° |
| 2026-04-26 21:15 | 49.80296 | 14.97626 | 20467 ft | 395 kts | 152° |
| 2026-04-26 21:15 | 49.77931 | 14.99796 | 20001 ft | 393 kts | 152° |
| 2026-04-26 21:15 | 49.75611 | 15.01924 | 19548 ft | 391 kts | 152° |
| 2026-04-26 21:16 | 49.73276 | 15.04065 | 19062 ft | 389 kts | 151° |
| 2026-04-26 21:16 | 49.71125 | 15.06597 | 18589 ft | 391 kts | 136° |
| 2026-04-26 21:16 | 49.69490 | 15.09931 | 18123 ft | 389 kts | 121° |
| 2026-04-26 21:16 | 49.68176 | 15.13571 | 17667 ft | 387 kts | 117° |
| 2026-04-26 21:17 | 49.66932 | 15.17246 | 17211 ft | 385 kts | 117° |
| 2026-04-26 21:17 | 49.65710 | 15.20907 | 16783 ft | 382 kts | 117° |
| 2026-04-26 21:17 | 49.64501 | 15.24531 | 16342 ft | 379 kts | 117° |
| 2026-04-26 21:17 | 49.63301 | 15.28124 | 15881 ft | 377 kts | 117° |
| 2026-04-26 21:18 | 49.62102 | 15.31715 | 15428 ft | 375 kts | 117° |
| 2026-04-26 21:18 | 49.60913 | 15.35269 | 15001 ft | 371 kts | 117° |
| 2026-04-26 21:18 | 49.59733 | 15.38785 | 14537 ft | 369 kts | 117° |
| 2026-04-26 21:18 | 49.58555 | 15.42295 | 14060 ft | 367 kts | 117° |
| 2026-04-26 21:19 | 49.57402 | 15.45733 | 13617 ft | 365 kts | 117° |
| 2026-04-26 21:19 | 49.56241 | 15.49192 | 13148 ft | 362 kts | 117° |
| 2026-04-26 21:19 | 49.55087 | 15.52619 | 12703 ft | 358 kts | 117° |
| 2026-04-26 21:19 | 49.53944 | 15.56008 | 12092 ft | 355 kts | 117° |
| 2026-04-26 21:20 | 49.52812 | 15.59366 | 11500 ft | 352 kts | 117° |
| 2026-04-26 21:20 | 49.51692 | 15.62683 | 10909 ft | 348 kts | 117° |
| 2026-04-26 21:20 | 49.50578 | 15.65973 | 10373 ft | 343 kts | 117° |
| 2026-04-26 21:20 | 49.49483 | 15.69200 | 9823 ft | 337 kts | 117° |
| 2026-04-26 21:21 | 49.48406 | 15.72380 | 9227 ft | 334 kts | 117° |
| 2026-04-26 21:21 | 49.47332 | 15.75534 | 8807 ft | 331 kts | 117° |
| 2026-04-26 21:21 | 49.46274 | 15.78640 | 8416 ft | 326 kts | 117° |
| 2026-04-26 21:21 | 49.45227 | 15.81714 | 8000 ft | 323 kts | 117° |
| 2026-04-26 21:22 | 49.44190 | 15.84752 | 7565 ft | 319 kts | 117° |
| 2026-04-26 21:22 | 49.43163 | 15.87757 | 7127 ft | 317 kts | 117° |
| 2026-04-26 21:22 | 49.42146 | 15.90743 | 6719 ft | 313 kts | 117° |
| 2026-04-26 21:23 | 49.40104 | 15.96581 | 5872 ft | 307 kts | 118° |
| 2026-04-26 21:23 | 49.39071 | 15.99383 | 5455 ft | 304 kts | 118° |
| 2026-04-26 21:23 | 49.38032 | 16.02187 | 5101 ft | 299 kts | 118° |
| 2026-04-26 21:23 | 49.37026 | 16.04901 | 4955 ft | 286 kts | 118° |
| 2026-04-26 21:24 | 49.36058 | 16.07507 | 4828 ft | 275 kts | 118° |
| 2026-04-26 21:24 | 49.35124 | 16.10016 | 4677 ft | 269 kts | 118° |
| 2026-04-26 21:24 | 49.34211 | 16.12482 | 4500 ft | 263 kts | 118° |
| 2026-04-26 21:24 | 49.33307 | 16.14916 | 4182 ft | 262 kts | 118° |
| 2026-04-26 21:25 | 49.32363 | 16.17308 | 3793 ft | 264 kts | 123° |
| 2026-04-26 21:25 | 49.31254 | 16.19544 | 3457 ft | 263 kts | 127° |
| 2026-04-26 21:25 | 49.30122 | 16.21717 | 3277 ft | 259 kts | 127° |
| 2026-04-26 21:25 | 49.28998 | 16.23867 | 3263 ft | 259 kts | 127° |
| 2026-04-26 21:26 | 49.27873 | 16.26016 | 3261 ft | 258 kts | 127° |
| 2026-04-26 21:26 | 49.26755 | 16.28157 | 3104 ft | 256 kts | 127° |
| 2026-04-26 21:26 | 49.25655 | 16.30262 | 2963 ft | 250 kts | 128° |
| 2026-04-26 21:26 | 49.24560 | 16.32350 | 2959 ft | 251 kts | 127° |
| 2026-04-26 21:27 | 49.23496 | 16.34373 | 2943 ft | 237 kts | 130° |
| 2026-04-26 21:27 | 49.22312 | 16.36003 | 2976 ft | 226 kts | 145° |
| 2026-04-26 21:27 | 49.20999 | 16.37252 | 2971 ft | 224 kts | 149° |
| 2026-04-26 21:27 | 49.19660 | 16.38440 | 2949 ft | 216 kts | 149° |
| 2026-04-26 21:28 | 49.18427 | 16.39562 | 2930 ft | 197 kts | 142° |
| 2026-04-26 21:28 | 49.17621 | 16.41089 | 2935 ft | 182 kts | 108° |
| 2026-04-26 21:28 | 49.17348 | 16.42926 | 2954 ft | 170 kts | 96° |
| 2026-04-26 21:28 | 49.17204 | 16.44666 | 2978 ft | 161 kts | 95° |
| 2026-04-26 21:29 | 49.17073 | 16.46364 | 2966 ft | 161 kts | 95° |
| 2026-04-26 21:29 | 49.16938 | 16.48058 | 2968 ft | 159 kts | 95° |
| 2026-04-26 21:29 | 49.16806 | 16.49669 | 2976 ft | 148 kts | 95° |
| 2026-04-26 21:29 | 49.16677 | 16.51221 | 2923 ft | 147 kts | 95° |
| 2026-04-26 21:30 | 49.16550 | 16.52747 | 2831 ft | 142 kts | 95° |
| 2026-04-26 21:30 | 49.16426 | 16.54222 | 2747 ft | 139 kts | 95° |
| 2026-04-26 21:30 | 49.16303 | 16.55691 | 2584 ft | 139 kts | 95° |
| 2026-04-26 21:30 | 49.16178 | 16.57156 | 2329 ft | 139 kts | 95° |
| 2026-04-26 21:31 | 49.16057 | 16.58618 | 2078 ft | 139 kts | 96° |
| 2026-04-26 21:31 | 49.15931 | 16.60082 | 1828 ft | 139 kts | 96° |
| 2026-04-26 21:31 | 49.15805 | 16.61542 | 1583 ft | 138 kts | 96° |
| 2026-04-26 21:31 | 49.15681 | 16.62986 | 1389 ft | 138 kts | 96° |
| 2026-04-26 21:32 | 49.15564 | 16.64458 | 1199 ft | 139 kts | 96° |
| 2026-04-26 21:32 | 49.15435 | 16.65945 | 1055 ft | 142 kts | 97° |
| 2026-04-26 21:32 | 49.15307 | 16.67430 | 847 ft | 139 kts | 97° |
| 2026-04-26 21:32 | 49.15184 | 16.68827 | 788 ft | 119 kts | 97° |
| 2026-04-26 21:33 | 49.15096 | 16.69823 | 788 ft | 70 kts | 98° |
| 2026-04-26 21:33 | 49.15055 | 16.70318 | 785 ft | 27 kts | 96° |
| 2026-04-26 21:33 | 49.15081 | 16.70483 | 787 ft | 13 kts | 28° |
| 2026-04-26 21:33 | 49.15141 | 16.70496 | 792 ft | 7 kts | 8° |
| 2026-04-26 21:34 | 49.15209 | 16.70498 | 793 ft | 12 kts | 333° |
| 2026-04-26 21:34 | 49.15238 | 16.70374 | 793 ft | 12 kts | 277° |
| 2026-04-26 21:34 | 49.15250 | 16.70233 | 793 ft | 16 kts | 277° |
| 2026-04-26 21:34 | 49.15265 | 16.70061 | 793 ft | 16 kts | 278° |
| 2026-04-26 21:35 | 49.15277 | 16.69914 | 793 ft | 13 kts | 276° |
| 2026-04-26 21:35 | 49.15287 | 16.69786 | 793 ft | 12 kts | 277° |
| 2026-04-26 21:35 | 49.15298 | 16.69661 | 793 ft | 12 kts | 277° |
| 2026-04-26 21:35 | 49.15308 | 16.69546 | 793 ft | 10 kts | 277° |
| 2026-04-26 21:36 | 49.15321 | 16.69417 | 793 ft | 17 kts | 278° |
| 2026-04-26 21:36 | 49.15331 | 16.69299 | 793 ft | 16 kts | 278° |
| 2026-04-26 21:36 | 49.15349 | 16.69090 | 793 ft | 12 kts | 278° |
| 2026-04-26 21:36 | 49.15357 | 16.68984 | 793 ft | 9 kts | 277° |
| 2026-04-26 21:37 | 49.15366 | 16.68882 | 793 ft | 13 kts | 278° |
| 2026-04-26 21:37 | 49.15377 | 16.68762 | 793 ft | 6 kts | 278° |
| 2026-04-26 21:37 | 49.15384 | 16.68746 | 793 ft | 4 kts | 315° |
| 2026-04-26 21:37 | 49.15436 | 16.68689 | 793 ft | 6 kts | 294° |
| 2026-04-26 21:38 | 49.15427 | 16.68671 | 793 ft | 1 kts | 206° |
| 2026-04-26 21:38 | 49.15424 | 16.68671 | 793 ft | 0 kts | 189° |